createdAt,value
2023-03-15T00:01:18.886Z,4.39
2023-03-15T00:03:45.750Z,4.37
2023-03-15T00:06:13.138Z,4.33
2023-03-15T00:08:40.669Z,4.30
2023-03-15T00:11:07.534Z,4.26
2023-03-15T00:13:35.314Z,4.23
2023-03-15T00:16:05.111Z,4.19
2023-03-15T00:18:33.436Z,4.18
2023-03-15T00:21:00.648Z,4.18
2023-03-15T00:23:29.494Z,4.17
2023-03-15T00:25:56.516Z,4.16
2023-03-15T00:28:23.747Z,4.13
2023-03-15T00:31:02.900Z,4.12
2023-03-15T00:33:35.262Z,4.12
2023-03-15T00:36:06.205Z,4.11
2023-03-15T00:38:35.714Z,4.10
2023-03-15T00:41:13.775Z,4.08
2023-03-15T00:43:43.496Z,4.08
2023-03-15T00:46:10.634Z,4.06
2023-03-15T00:48:37.869Z,4.07
2023-03-15T00:51:09.399Z,4.05
2023-03-15T00:53:38.718Z,4.04
2023-03-15T00:56:12.715Z,4.03
2023-03-15T00:58:41.636Z,3.99
2023-03-15T01:01:10.503Z,3.97
2023-03-15T01:03:38.622Z,4.05
2023-03-15T01:06:07.537Z,4.09
2023-03-15T01:08:34.506Z,4.04
2023-03-15T01:11:05.470Z,3.97
2023-03-15T01:13:33.027Z,3.91
2023-03-15T01:16:00.110Z,3.85
2023-03-15T01:18:26.971Z,3.79
2023-03-15T01:20:54.264Z,3.74
2023-03-15T01:23:21.477Z,3.67
2023-03-15T01:25:48.162Z,3.73
2023-03-15T01:28:15.158Z,3.80
2023-03-15T01:30:49.906Z,3.78
2023-03-15T01:33:17.097Z,3.72
2023-03-15T01:35:44.247Z,3.68
2023-03-15T01:38:11.739Z,3.62
2023-03-15T01:40:43.737Z,3.56
2023-03-15T01:43:17.771Z,3.49
2023-03-15T01:46:23.083Z,3.53
2023-03-15T01:49:23.660Z,3.57
2023-03-15T01:52:12.454Z,3.48
2023-03-15T01:55:13.936Z,3.40
2023-03-15T01:57:57.447Z,3.32
2023-03-15T02:00:27.061Z,3.28
2023-03-15T02:03:15.742Z,3.28
2023-03-15T02:05:47.687Z,3.39
2023-03-15T02:08:20.924Z,3.36
2023-03-15T02:10:50.457Z,3.32
2023-03-15T02:13:22.286Z,3.28
2023-03-15T02:15:52.933Z,3.25
2023-03-15T02:18:24.267Z,3.19
2023-03-15T02:21:18.806Z,3.23
2023-03-15T02:23:49.968Z,3.29
2023-03-15T02:26:29.080Z,3.26
2023-03-15T02:28:58.085Z,3.22
2023-03-15T02:31:24.824Z,3.19
2023-03-15T02:33:52.588Z,3.14
2023-03-15T02:36:25.476Z,3.15
2023-03-15T02:38:54.805Z,3.25
2023-03-15T02:41:39.328Z,3.25
2023-03-15T02:44:12.787Z,3.18
2023-03-15T02:46:39.888Z,3.12
2023-03-15T02:49:06.868Z,3.07
2023-03-15T02:51:34.601Z,3.04
2023-03-15T02:54:04.172Z,3.12
2023-03-15T02:56:34.084Z,3.12
2023-03-15T02:59:01.619Z,3.08
2023-03-15T03:01:28.629Z,3.02
2023-03-15T03:03:56.739Z,2.97
2023-03-15T03:06:24.459Z,2.92
2023-03-15T03:08:55.032Z,2.99
2023-03-15T03:11:23.087Z,3.02
2023-03-15T03:13:50.780Z,2.98
2023-03-15T03:16:18.801Z,2.93
2023-03-15T03:18:45.944Z,2.89
2023-03-15T03:21:14.236Z,2.83
2023-03-15T03:23:45.639Z,2.83
2023-03-15T03:26:17.356Z,2.91
2023-03-15T03:28:46.403Z,2.87
2023-03-15T03:31:18.336Z,2.80
2023-03-15T03:33:46.438Z,2.73
2023-03-15T03:36:13.196Z,2.65
2023-03-15T03:38:41.284Z,2.69
2023-03-15T03:41:09.168Z,2.78
2023-03-15T03:43:36.897Z,2.75
2023-03-15T03:46:05.350Z,2.72
2023-03-15T03:48:33.308Z,2.68
2023-03-15T03:50:59.931Z,2.64
2023-03-15T03:53:27.136Z,2.72
2023-03-15T03:55:55.112Z,2.80
2023-03-15T03:58:23.578Z,2.78
2023-03-15T04:01:05.157Z,2.75
2023-03-15T04:03:32.641Z,2.74
2023-03-15T04:06:09.936Z,2.73
2023-03-15T04:08:41.754Z,2.81
2023-03-15T04:11:11.834Z,2.91
2023-03-15T04:13:50.601Z,2.90
2023-03-15T04:16:17.490Z,2.87
2023-03-15T04:19:07.413Z,2.83
2023-03-15T04:21:36.481Z,2.80
2023-03-15T04:24:22.212Z,2.80
2023-03-15T04:27:07.204Z,2.92
2023-03-15T04:30:04.888Z,2.92
2023-03-15T04:33:01.644Z,2.88
2023-03-15T04:35:43.116Z,2.86
2023-03-15T04:38:49.533Z,2.86
2023-03-15T04:41:28.508Z,2.98
2023-03-15T04:44:08.187Z,3.04
2023-03-15T04:46:58.228Z,3.03
2023-03-15T04:49:50.781Z,3.06
2023-03-15T04:52:33.283Z,3.10
2023-03-15T04:55:16.053Z,3.16
2023-03-15T04:57:58.094Z,3.28
2023-03-15T05:00:43.890Z,3.31
2023-03-15T05:03:50.496Z,3.33
2023-03-15T05:06:35.676Z,3.35
2023-03-15T05:09:24.974Z,3.38
2023-03-15T05:12:12.591Z,3.41
2023-03-15T05:15:10.189Z,3.52
2023-03-15T05:17:56.121Z,3.56
2023-03-15T05:20:43.170Z,3.59
2023-03-15T05:23:39.764Z,3.67
2023-03-15T05:26:06.796Z,3.71
2023-03-15T05:28:51.731Z,3.72
2023-03-15T05:31:21.390Z,3.78
2023-03-15T05:34:13.658Z,3.84
2023-03-15T05:37:00.843Z,3.81
2023-03-15T05:39:50.379Z,3.79
2023-03-15T05:42:34.864Z,3.78
2023-03-15T05:45:28.999Z,3.79
2023-03-15T05:48:27.927Z,3.93
2023-03-15T05:51:14.829Z,4.11
2023-03-15T05:53:57.963Z,4.21
2023-03-15T05:56:44.750Z,4.28
2023-03-15T05:59:32.289Z,4.33
2023-03-15T06:02:26.727Z,4.38
2023-03-15T06:05:10.076Z,4.42
2023-03-15T06:07:37.669Z,4.53
2023-03-15T06:10:07.638Z,4.70
2023-03-15T06:12:36.184Z,4.78
2023-03-15T06:15:04.097Z,4.84
2023-03-15T06:17:32.643Z,4.87
2023-03-15T06:20:01.384Z,4.88
2023-03-15T06:22:28.574Z,4.93
2023-03-15T06:24:58.476Z,4.99
2023-03-15T06:27:25.437Z,5.02
2023-03-15T06:30:02.619Z,5.07
2023-03-15T06:32:33.896Z,5.25
2023-03-15T06:35:00.755Z,5.41
2023-03-15T06:37:35.157Z,5.48
2023-03-15T06:40:07.328Z,5.52
2023-03-15T06:44:07.570Z,5.59
2023-03-15T06:46:36.477Z,5.59
2023-03-15T06:49:03.402Z,5.60
2023-03-15T06:51:30.780Z,5.65
2023-03-15T06:53:57.523Z,5.67
2023-03-15T06:56:26.949Z,5.70
2023-03-15T06:58:53.789Z,5.72
2023-03-15T07:01:22.450Z,5.70
2023-03-15T07:03:50.992Z,5.73
2023-03-15T07:06:17.902Z,5.79
2023-03-15T07:08:44.579Z,5.84
2023-03-15T07:11:12.960Z,5.89
2023-03-15T07:13:40.656Z,5.97
2023-03-15T07:16:10.673Z,6.06
2023-03-15T07:18:38.211Z,6.18
2023-03-15T07:21:06.367Z,6.28
2023-03-15T07:23:33.326Z,6.38
2023-03-15T07:26:00.696Z,6.48
2023-03-15T07:28:30.418Z,6.56
2023-03-15T07:30:58.925Z,6.60
2023-03-15T07:33:26.093Z,6.64
2023-03-15T07:35:53.504Z,6.63
2023-03-15T07:38:23.428Z,6.63
2023-03-15T07:40:50.186Z,6.68
2023-03-15T07:43:19.213Z,6.72
2023-03-15T07:45:52.498Z,6.70
2023-03-15T07:48:28.619Z,6.66
2023-03-15T07:50:56.301Z,6.64
2023-03-15T07:53:27.236Z,6.63
2023-03-15T07:55:55.197Z,6.67
2023-03-15T07:58:21.887Z,6.73
2023-03-15T08:00:48.813Z,6.78
2023-03-15T08:03:16.293Z,6.87
2023-03-15T08:05:43.325Z,6.98
2023-03-15T08:08:10.000Z,7.10
2023-03-15T08:10:37.738Z,7.25
2023-03-15T08:13:06.079Z,7.40
2023-03-15T08:15:33.002Z,7.55
2023-03-15T08:18:09.094Z,7.75
2023-03-15T08:20:36.355Z,7.97
2023-03-15T08:23:03.402Z,8.19
2023-03-15T08:25:30.349Z,8.36
2023-03-15T08:27:57.873Z,8.44
2023-03-15T08:30:25.188Z,8.57
2023-03-15T08:32:52.296Z,8.75
2023-03-15T08:35:20.933Z,8.88
2023-03-15T08:37:54.902Z,8.98
2023-03-15T08:40:24.788Z,9.15
2023-03-15T08:42:54.558Z,9.44
2023-03-15T08:45:23.649Z,9.75
2023-03-15T08:47:58.400Z,9.99
2023-03-15T08:50:26.747Z,10.23
2023-03-15T08:52:56.508Z,10.44
2023-03-15T08:55:23.352Z,10.63
2023-03-15T08:57:51.362Z,10.84
2023-03-15T09:00:22.537Z,11.11
2023-03-15T09:02:51.482Z,11.28
2023-03-15T09:05:20.581Z,11.47
2023-03-15T09:07:47.599Z,11.69
2023-03-15T09:10:16.826Z,11.86
2023-03-15T09:12:46.071Z,12.02
2023-03-15T09:15:13.089Z,12.36
2023-03-15T09:17:43.301Z,12.83
2023-03-15T09:20:14.437Z,13.40
2023-03-15T09:22:49.189Z,14.06
2023-03-15T09:25:16.601Z,14.69
2023-03-15T09:27:43.802Z,15.37
2023-03-15T09:30:11.494Z,16.00
2023-03-15T09:32:42.033Z,16.65
2023-03-15T09:35:11.968Z,17.19
2023-03-15T09:37:39.665Z,17.67
2023-03-15T09:40:09.055Z,18.09
2023-03-15T09:43:05.516Z,18.54
2023-03-15T09:45:54.702Z,18.92
2023-03-15T09:48:41.120Z,19.24
2023-03-15T09:51:31.623Z,19.68
2023-03-15T09:54:04.868Z,20.23
2023-03-15T09:56:37.766Z,20.64
2023-03-15T09:59:09.239Z,21.21
2023-03-15T10:01:44.760Z,21.81
2023-03-15T10:04:20.723Z,22.04
2023-03-15T10:06:52.305Z,22.12
2023-03-15T10:09:21.644Z,22.08
2023-03-15T10:12:28.578Z,22.09
2023-03-15T10:15:05.612Z,22.22
2023-03-15T10:17:35.796Z,22.49
2023-03-15T10:20:18.461Z,22.86
2023-03-15T10:23:05.215Z,23.19
2023-03-15T10:25:36.569Z,23.64
2023-03-15T10:28:09.677Z,24.03
2023-03-15T10:30:39.298Z,24.46
2023-03-15T10:33:09.948Z,24.67
2023-03-15T10:35:37.419Z,24.71
2023-03-15T10:38:17.644Z,24.55
2023-03-15T10:40:46.569Z,24.82
2023-03-15T10:43:29.001Z,25.07
2023-03-15T10:46:04.956Z,25.24
2023-03-15T10:48:36.426Z,25.17
2023-03-15T10:51:17.431Z,25.24
2023-03-15T10:54:10.479Z,25.81
2023-03-15T10:56:59.220Z,26.23
2023-03-15T10:59:29.935Z,26.34
2023-03-15T11:02:13.495Z,26.23
2023-03-15T11:04:41.939Z,26.34
2023-03-15T11:07:10.796Z,26.60
2023-03-15T11:09:45.108Z,26.96
2023-03-15T11:12:26.621Z,27.30
2023-03-15T11:15:12.945Z,27.51
2023-03-15T11:17:47.035Z,27.72
2023-03-15T11:20:26.685Z,27.95
2023-03-15T11:22:55.130Z,28.04
2023-03-15T11:25:26.364Z,28.15
2023-03-15T11:27:53.312Z,28.11
2023-03-15T11:30:28.138Z,28.08
2023-03-15T11:32:55.618Z,28.08
2023-03-15T11:35:33.143Z,28.05
2023-03-15T11:38:14.702Z,28.09
2023-03-15T11:40:47.639Z,28.03
2023-03-15T11:43:21.519Z,27.76
2023-03-15T11:45:53.579Z,28.02
2023-03-15T11:48:54.603Z,28.09
2023-03-15T11:51:21.569Z,28.07
2023-03-15T11:54:04.856Z,27.97
2023-03-15T11:56:45.687Z,27.89
2023-03-15T11:59:41.547Z,28.00
2023-03-15T12:02:14.523Z,28.04
2023-03-15T12:04:48.997Z,27.83
2023-03-15T12:07:21.794Z,27.40
2023-03-15T12:09:54.858Z,26.95
2023-03-15T12:12:25.910Z,26.61
2023-03-15T12:15:05.961Z,26.34
2023-03-15T12:17:38.521Z,26.26
2023-03-15T12:20:19.068Z,26.27
2023-03-15T12:22:51.295Z,26.36
2023-03-15T12:25:33.846Z,26.28
2023-03-15T12:28:04.826Z,26.22
2023-03-15T12:30:35.334Z,26.29
2023-03-15T12:33:02.421Z,26.35
2023-03-15T12:35:33.382Z,26.35
2023-03-15T12:38:00.979Z,25.91
2023-03-15T12:40:27.944Z,25.48
2023-03-15T12:42:56.999Z,25.61
2023-03-15T12:45:26.553Z,26.03
2023-03-15T12:47:53.205Z,26.32
2023-03-15T12:50:45.397Z,26.63
2023-03-15T12:53:31.606Z,27.09
2023-03-15T12:56:15.272Z,27.49
2023-03-15T12:58:42.131Z,27.76
2023-03-15T13:01:15.450Z,27.86
2023-03-15T13:03:42.183Z,27.82
2023-03-15T13:06:34.873Z,27.73
2023-03-15T13:09:04.245Z,27.95
2023-03-15T13:12:14.506Z,28.16
2023-03-15T13:15:01.539Z,28.49
2023-03-15T13:17:34.835Z,28.62
2023-03-15T13:20:26.614Z,28.88
2023-03-15T13:23:10.204Z,28.85
2023-03-15T13:25:56.576Z,28.19
2023-03-15T13:28:37.548Z,26.94
2023-03-15T13:31:23.214Z,25.69
2023-03-15T13:33:57.664Z,24.43
2023-03-15T13:36:46.310Z,23.20
2023-03-15T13:39:23.515Z,22.05
2023-03-15T13:42:01.613Z,21.10
2023-03-15T13:44:30.436Z,20.29
2023-03-15T13:46:58.042Z,19.56
2023-03-15T13:49:24.964Z,18.78
2023-03-15T13:51:52.193Z,18.07
2023-03-15T13:54:32.235Z,17.56
2023-03-15T13:57:18.408Z,17.09
2023-03-15T13:59:45.700Z,16.69
2023-03-15T14:02:20.379Z,16.17
2023-03-15T14:04:58.116Z,15.64
2023-03-15T14:07:34.841Z,15.28
2023-03-15T14:10:31.659Z,14.95
2023-03-15T14:13:28.931Z,14.67
2023-03-15T14:15:57.212Z,14.49
2023-03-15T14:18:35.815Z,14.36
2023-03-15T14:21:16.919Z,14.29
2023-03-15T14:23:45.605Z,14.15
2023-03-15T14:26:19.848Z,13.96
2023-03-15T14:28:56.102Z,13.73
2023-03-15T14:31:32.231Z,13.49
2023-03-15T14:34:08.263Z,13.24
2023-03-15T14:36:43.205Z,12.99
2023-03-15T14:39:28.363Z,12.80
2023-03-15T14:41:55.946Z,12.63
2023-03-15T14:44:25.284Z,12.48
2023-03-15T14:46:52.610Z,12.35
2023-03-15T14:49:23.989Z,12.17
2023-03-15T14:52:02.580Z,12.04
2023-03-15T14:54:36.086Z,11.93
2023-03-15T14:57:02.808Z,11.83
2023-03-15T14:59:29.553Z,11.72
2023-03-15T15:01:57.789Z,11.60
2023-03-15T15:04:26.934Z,11.46
2023-03-15T15:06:58.277Z,11.28
2023-03-15T15:09:26.527Z,11.10
2023-03-15T15:11:53.816Z,10.95
2023-03-15T15:14:21.428Z,10.84
2023-03-15T15:16:48.606Z,10.77
2023-03-15T15:19:15.583Z,10.69
2023-03-15T15:21:42.650Z,10.62
2023-03-15T15:24:18.053Z,10.55
2023-03-15T15:26:45.277Z,10.45
2023-03-15T15:29:14.233Z,10.31
2023-03-15T15:31:41.348Z,10.14
2023-03-15T15:34:12.710Z,10.01
2023-03-15T15:36:45.609Z,9.90
2023-03-15T15:39:22.213Z,9.82
2023-03-15T15:41:49.325Z,9.71
2023-03-15T15:44:18.117Z,9.62
2023-03-15T15:46:44.853Z,9.54
2023-03-15T15:49:12.046Z,9.46
2023-03-15T15:51:42.328Z,9.39
2023-03-15T15:54:16.890Z,9.32
2023-03-15T15:56:55.494Z,9.22
2023-03-15T15:59:24.916Z,9.16
2023-03-15T16:02:00.613Z,9.12
2023-03-15T16:04:29.278Z,9.08
2023-03-15T16:07:00.836Z,9.01
2023-03-15T16:09:27.776Z,8.94
2023-03-15T16:11:56.246Z,8.85
2023-03-15T16:14:23.811Z,8.76
2023-03-15T16:16:50.502Z,8.68
2023-03-15T16:19:19.985Z,8.60
2023-03-15T16:21:47.977Z,8.53
2023-03-15T16:24:20.757Z,8.50
2023-03-15T16:26:48.318Z,8.45
2023-03-15T16:29:17.343Z,8.40
2023-03-15T16:31:44.230Z,8.33
2023-03-15T16:34:11.638Z,8.24
2023-03-15T16:36:49.614Z,8.20
2023-03-15T16:39:18.293Z,8.16
2023-03-15T16:41:48.689Z,8.09
2023-03-15T16:44:18.080Z,8.05
2023-03-15T16:46:45.345Z,8.03
2023-03-15T16:49:14.271Z,8.03
2023-03-15T16:51:45.213Z,8.11
2023-03-15T16:54:22.073Z,8.06
2023-03-15T16:56:58.962Z,7.96
2023-03-15T16:59:27.425Z,7.90
2023-03-15T17:01:54.684Z,7.87
2023-03-15T17:04:21.667Z,7.83
2023-03-15T17:09:21.721Z,7.69
2023-03-15T17:11:49.300Z,7.59
2023-03-15T17:14:25.975Z,7.52
2023-03-15T17:16:56.383Z,7.57
2023-03-15T17:19:26.713Z,7.57
2023-03-15T17:21:56.847Z,7.52
2023-03-15T17:24:32.539Z,7.48
2023-03-15T17:27:13.089Z,7.43
2023-03-15T17:29:50.962Z,7.40
2023-03-15T17:32:24.410Z,7.36
2023-03-15T17:35:03.684Z,7.33
2023-03-15T17:37:36.402Z,7.40
2023-03-15T17:40:16.596Z,7.46
2023-03-15T17:42:44.528Z,7.43
2023-03-15T17:45:21.979Z,7.40
2023-03-15T17:48:06.463Z,7.36
2023-03-15T17:50:41.064Z,7.31
2023-03-15T17:53:16.481Z,7.25
2023-03-15T17:58:57.502Z,7.39
2023-03-15T18:01:27.370Z,7.38
2023-03-15T18:04:08.138Z,7.39
2023-03-15T18:06:35.178Z,7.38
2023-03-15T18:09:09.147Z,7.36
2023-03-15T18:11:36.953Z,7.34
2023-03-15T18:14:04.135Z,7.42
2023-03-15T18:16:33.359Z,7.41
2023-03-15T18:19:00.448Z,7.37
2023-03-15T18:21:27.193Z,7.33
2023-03-15T18:23:56.026Z,7.29
2023-03-15T18:26:23.359Z,7.25
2023-03-15T18:28:50.830Z,7.32
2023-03-15T18:31:20.707Z,7.39
2023-03-15T18:33:48.281Z,7.39
2023-03-15T18:36:18.410Z,7.34
2023-03-15T18:38:46.152Z,7.25
2023-03-15T18:41:21.173Z,7.18
2023-03-15T18:43:49.523Z,7.22
2023-03-15T18:46:21.299Z,7.26
2023-03-15T18:48:53.837Z,7.23
2023-03-15T18:51:22.376Z,7.18
2023-03-15T18:53:49.574Z,7.14
2023-03-15T18:56:21.911Z,7.10
2023-03-15T19:01:45.272Z,7.22
2023-03-15T19:04:14.456Z,7.18
2023-03-15T19:06:43.076Z,7.12
2023-03-15T19:09:12.074Z,7.05
2023-03-15T19:11:41.936Z,6.99
2023-03-15T19:14:13.883Z,7.04
2023-03-15T19:16:42.326Z,7.04
2023-03-15T19:19:11.384Z,6.98
2023-03-15T19:21:43.130Z,6.91
2023-03-15T19:24:11.598Z,6.85
2023-03-15T19:26:39.783Z,6.82
2023-03-15T19:29:08.877Z,6.89
2023-03-15T19:31:37.127Z,6.89
2023-03-15T19:34:06.852Z,6.84
2023-03-15T19:36:35.364Z,6.78
2023-03-15T19:39:05.857Z,6.73
2023-03-15T19:41:34.011Z,6.81
2023-03-15T19:44:02.247Z,6.87
2023-03-15T19:46:30.663Z,6.82
2023-03-15T19:48:58.934Z,6.74
2023-03-15T19:51:27.713Z,6.67
2023-03-15T19:53:57.237Z,6.63
2023-03-15T19:56:25.633Z,6.71
2023-03-15T19:58:56.427Z,6.73
2023-03-15T20:01:26.665Z,6.70
2023-03-15T20:03:55.326Z,6.65
2023-03-15T20:06:23.500Z,6.62
2023-03-15T20:08:52.028Z,6.69
2023-03-15T20:11:26.057Z,6.75
2023-03-15T20:13:55.126Z,6.73
2023-03-15T20:16:24.167Z,6.68
2023-03-15T20:18:55.929Z,6.62
2023-03-15T20:21:24.555Z,6.59
2023-03-15T20:23:52.648Z,6.68
2023-03-15T20:26:23.866Z,6.74
2023-03-15T20:28:53.344Z,6.71
2023-03-15T20:31:23.522Z,6.67
2023-03-15T20:33:53.572Z,6.64
2023-03-15T20:36:22.170Z,6.68
2023-03-15T20:38:50.674Z,6.75
2023-03-15T20:41:19.050Z,6.71
2023-03-15T20:43:48.935Z,6.66
2023-03-15T20:46:19.540Z,6.61
2023-03-15T20:48:49.087Z,6.58
2023-03-15T20:51:17.431Z,6.64
2023-03-15T20:53:45.888Z,6.66
2023-03-15T20:56:16.602Z,6.61
2023-03-15T20:58:46.847Z,6.55
2023-03-15T21:01:21.290Z,6.52
2023-03-15T21:03:50.355Z,6.61
2023-03-15T21:06:18.438Z,6.67
2023-03-15T21:08:46.869Z,6.64
2023-03-15T21:11:14.876Z,6.59
2023-03-15T21:13:43.226Z,6.54
2023-03-15T21:16:12.873Z,6.60
2023-03-15T21:18:45.169Z,6.70
2023-03-15T21:21:13.409Z,6.69
2023-03-15T21:23:42.123Z,6.66
2023-03-15T21:26:11.712Z,6.60
2023-03-15T21:28:41.667Z,6.57
2023-03-15T21:31:10.955Z,6.63
2023-03-15T21:33:39.497Z,6.64
2023-03-15T21:36:07.857Z,6.59
2023-03-15T21:38:37.674Z,6.54
2023-03-15T21:41:09.366Z,6.53
2023-03-15T21:43:38.154Z,6.59
2023-03-15T21:46:08.297Z,6.65
2023-03-15T21:48:37.256Z,6.62
2023-03-15T21:51:05.899Z,6.56
2023-03-15T21:53:36.062Z,6.54
2023-03-15T21:56:05.302Z,6.62
2023-03-15T21:58:33.776Z,6.71
2023-03-15T22:01:05.308Z,6.67
2023-03-15T22:03:34.263Z,6.61
2023-03-15T22:06:02.722Z,6.58
2023-03-15T22:08:33.961Z,6.59
2023-03-15T22:11:04.376Z,6.67
2023-03-15T22:13:37.120Z,6.64
2023-03-15T22:16:06.092Z,6.58
2023-03-15T22:18:34.407Z,6.52
2023-03-15T22:21:03.561Z,6.49
2023-03-15T22:23:32.129Z,6.55
2023-03-15T22:26:01.082Z,6.55
2023-03-15T22:28:31.801Z,6.47
2023-03-15T22:31:01.636Z,6.42
2023-03-15T22:33:34.929Z,6.42
2023-03-15T22:36:03.700Z,6.48
2023-03-15T22:38:37.945Z,6.44
2023-03-15T22:41:08.071Z,6.37
2023-03-15T22:43:39.645Z,6.29
2023-03-15T22:46:08.239Z,6.31
2023-03-15T22:48:36.608Z,6.39
2023-03-15T22:51:09.939Z,6.38
2023-03-15T22:53:38.861Z,6.32
2023-03-15T22:56:07.055Z,6.27
2023-03-15T22:58:35.769Z,6.21
2023-03-15T23:01:04.480Z,6.24
2023-03-15T23:03:32.807Z,6.28
2023-03-15T23:06:01.883Z,6.23
2023-03-15T23:08:30.307Z,6.20
2023-03-15T23:10:58.688Z,6.19
2023-03-15T23:13:27.034Z,6.26
2023-03-15T23:15:55.453Z,6.29
2023-03-15T23:18:24.550Z,6.22
2023-03-15T23:20:52.650Z,6.14
2023-03-15T23:23:20.758Z,6.14
2023-03-15T23:25:50.637Z,6.21
2023-03-15T23:28:22.071Z,6.20
2023-03-15T23:30:51.716Z,6.14
2023-03-15T23:33:19.728Z,6.09
2023-03-15T23:35:48.074Z,6.14
2023-03-15T23:38:16.684Z,6.17
2023-03-15T23:40:44.833Z,6.12
2023-03-15T23:43:13.506Z,6.08
2023-03-15T23:45:41.527Z,6.12
2023-03-15T23:48:12.585Z,6.18
2023-03-15T23:50:44.452Z,6.16
2023-03-15T23:53:16.908Z,6.09
2023-03-15T23:55:44.888Z,6.05
2023-03-15T23:58:12.992Z,6.10
